createdAt,value
2019-06-15T00:01:03.675Z,16.80
2019-06-15T00:03:32.059Z,16.80
2019-06-15T00:06:00.504Z,16.80
2019-06-15T00:08:28.919Z,16.80
2019-06-15T00:10:57.328Z,16.80
2019-06-15T00:13:25.716Z,16.80
2019-06-15T00:15:54.123Z,16.80
2019-06-15T00:18:22.505Z,16.80
2019-06-15T00:20:50.911Z,16.80
2019-06-15T00:23:19.337Z,16.70
2019-06-15T00:25:47.746Z,16.70
2019-06-15T00:28:16.157Z,16.70
2019-06-15T00:30:44.584Z,16.70
2019-06-15T00:33:12.985Z,16.70
2019-06-15T00:35:41.393Z,16.80
2019-06-15T00:38:09.881Z,16.80
2019-06-15T00:40:38.367Z,16.80
2019-06-15T00:43:06.746Z,16.80
2019-06-15T00:45:35.179Z,16.80
2019-06-15T00:48:03.609Z,16.70
2019-06-15T00:50:32.063Z,16.70
2019-06-15T00:53:00.467Z,16.60
2019-06-15T00:55:28.887Z,16.50
2019-06-15T00:57:57.284Z,16.50
2019-06-15T01:00:25.769Z,16.40
2019-06-15T01:02:54.166Z,16.20
2019-06-15T01:05:22.565Z,16.00
2019-06-15T01:07:50.947Z,15.90
2019-06-15T01:10:19.354Z,15.70
2019-06-15T01:12:47.741Z,15.40
2019-06-15T01:15:16.144Z,15.10
2019-06-15T01:17:44.523Z,14.80
2019-06-15T01:20:13.120Z,14.60
2019-06-15T01:22:41.561Z,14.60
2019-06-15T01:25:09.989Z,14.60
2019-06-15T01:27:40.101Z,14.50
2019-06-15T01:30:08.560Z,14.30
2019-06-15T01:32:36.992Z,14.30
2019-06-15T01:35:05.729Z,14.10
2019-06-15T01:37:34.103Z,14.20
2019-06-15T01:40:03.093Z,14.20
2019-06-15T01:42:31.528Z,14.20
2019-06-15T01:44:59.944Z,14.00
2019-06-15T01:47:28.315Z,13.90
2019-06-15T01:49:56.837Z,13.80
2019-06-15T01:52:25.382Z,13.80
2019-06-15T01:54:53.788Z,13.80
2019-06-15T01:57:22.184Z,13.80
2019-06-15T01:59:50.600Z,13.90
2019-06-15T02:02:19.008Z,13.90
2019-06-15T02:04:47.395Z,13.90
2019-06-15T02:07:15.804Z,14.00
2019-06-15T02:09:44.195Z,13.90
2019-06-15T02:12:12.607Z,13.90
2019-06-15T02:14:41.135Z,13.90
2019-06-15T02:17:09.515Z,13.70
2019-06-15T02:19:37.925Z,13.70
2019-06-15T02:22:06.314Z,13.70
2019-06-15T02:24:34.733Z,13.60
2019-06-15T02:27:03.146Z,13.60
2019-06-15T02:29:31.544Z,13.70
2019-06-15T02:31:59.956Z,13.70
2019-06-15T02:34:28.368Z,13.70
2019-06-15T02:36:56.761Z,13.70
2019-06-15T02:39:25.156Z,13.70
2019-06-15T02:41:53.543Z,13.60
2019-06-15T02:44:21.949Z,13.60
2019-06-15T02:46:50.340Z,13.60
2019-06-15T02:49:18.742Z,13.60
2019-06-15T02:51:47.144Z,13.60
2019-06-15T02:54:15.522Z,13.70
2019-06-15T02:56:43.926Z,13.60
2019-06-15T02:59:12.321Z,13.60
2019-06-15T03:01:40.751Z,13.60
2019-06-15T03:04:09.199Z,13.60
2019-06-15T03:06:37.546Z,13.60
2019-06-15T03:09:06.610Z,13.50
2019-06-15T03:11:34.987Z,13.60
2019-06-15T03:14:04.628Z,13.50
2019-06-15T03:16:33.203Z,13.50
2019-06-15T03:19:01.702Z,13.50
2019-06-15T03:21:30.200Z,13.60
2019-06-15T03:23:58.622Z,13.60
2019-06-15T03:26:27.001Z,13.70
2019-06-15T03:28:55.388Z,13.70
2019-06-15T03:31:23.817Z,13.70
2019-06-15T03:33:52.202Z,13.70
2019-06-15T03:36:20.631Z,13.80
2019-06-15T03:38:49.075Z,13.80
2019-06-15T03:41:17.488Z,13.80
2019-06-15T03:43:45.941Z,13.90
2019-06-15T03:46:14.360Z,13.90
2019-06-15T03:48:42.741Z,13.90
2019-06-15T03:51:11.121Z,13.90
2019-06-15T03:53:39.525Z,13.80
2019-06-15T03:56:20.683Z,13.90
2019-06-15T03:58:37.970Z,13.90
2019-06-15T04:01:15.887Z,13.80
2019-06-15T04:03:44.295Z,13.80
2019-06-15T04:06:12.689Z,13.80
2019-06-15T04:08:41.107Z,13.70
2019-06-15T04:11:09.474Z,13.80
2019-06-15T04:13:37.862Z,13.90
2019-06-15T04:16:06.304Z,13.90
2019-06-15T04:18:34.720Z,13.90
2019-06-15T04:21:03.130Z,13.90
2019-06-15T04:23:31.544Z,13.80
2019-06-15T04:25:59.949Z,13.70
2019-06-15T04:28:28.470Z,13.70
2019-06-15T04:30:56.861Z,13.70
2019-06-15T04:33:25.284Z,13.70
2019-06-15T04:35:53.667Z,13.70
2019-06-15T04:38:22.080Z,13.60
2019-06-15T04:40:50.515Z,13.60
2019-06-15T04:43:18.963Z,13.60
2019-06-15T04:45:47.389Z,13.70
2019-06-15T04:48:15.778Z,13.70
2019-06-15T04:50:44.248Z,13.80
2019-06-15T04:53:14.832Z,13.80
2019-06-15T04:55:42.699Z,13.80
2019-06-15T04:58:14.231Z,13.90
2019-06-15T05:00:42.177Z,13.90
2019-06-15T05:03:10.573Z,13.90
2019-06-15T05:05:38.978Z,13.90
2019-06-15T05:08:07.403Z,13.90
2019-06-15T05:10:35.791Z,13.90
2019-06-15T05:13:04.208Z,13.90
2019-06-15T05:15:32.639Z,13.90
2019-06-15T05:18:01.084Z,13.90
2019-06-15T05:20:48.897Z,13.80
2019-06-15T05:23:20.619Z,13.90
2019-06-15T05:25:49.072Z,13.90
2019-06-15T05:28:17.504Z,13.90
2019-06-15T05:30:45.922Z,13.90
2019-06-15T05:33:14.314Z,13.90
2019-06-15T05:35:42.715Z,13.90
2019-06-15T05:38:11.286Z,13.90
2019-06-15T05:40:39.752Z,14.00
2019-06-15T05:43:08.094Z,14.10
2019-06-15T05:45:36.524Z,14.10
2019-06-15T05:48:04.908Z,14.10
2019-06-15T05:50:34.964Z,14.20
2019-06-15T05:53:03.352Z,14.20
2019-06-15T05:55:31.807Z,14.20
2019-06-15T05:58:00.190Z,14.30
2019-06-15T06:00:28.593Z,14.40
2019-06-15T06:02:57.075Z,14.30
2019-06-15T06:05:25.457Z,14.40
2019-06-15T06:07:53.921Z,14.40
2019-06-15T06:10:22.356Z,14.40
2019-06-15T06:12:50.770Z,14.50
2019-06-15T06:15:19.176Z,14.40
2019-06-15T06:17:47.597Z,14.40
2019-06-15T06:20:15.987Z,14.40
2019-06-15T06:22:44.400Z,14.40
2019-06-15T06:25:13.476Z,14.40
2019-06-15T06:27:41.924Z,14.40
2019-06-15T06:30:10.641Z,14.50
2019-06-15T06:32:39.044Z,14.50
2019-06-15T06:35:08.811Z,14.50
2019-06-15T06:37:37.278Z,14.40
2019-06-15T06:40:08.968Z,14.40
2019-06-15T06:42:37.402Z,14.40
2019-06-15T06:45:09.773Z,14.50
2019-06-15T06:47:38.285Z,14.50
2019-06-15T06:50:26.214Z,14.60
2019-06-15T06:52:54.596Z,14.60
2019-06-15T06:55:23.017Z,14.60
2019-06-15T06:57:54.831Z,14.70
2019-06-15T07:00:21.449Z,14.80
2019-06-15T07:02:49.865Z,14.90
2019-06-15T07:05:18.432Z,14.90
2019-06-15T07:07:46.929Z,15.00
2019-06-15T07:10:16.148Z,15.10
2019-06-15T07:12:44.563Z,15.10
2019-06-15T07:15:12.980Z,15.10
2019-06-15T07:17:41.365Z,15.10
2019-06-15T07:20:09.792Z,15.10
2019-06-15T07:22:38.292Z,15.10
2019-06-15T07:25:06.744Z,15.10
2019-06-15T07:27:35.154Z,15.10
2019-06-15T07:30:10.376Z,15.10
2019-06-15T07:32:38.779Z,15.10
2019-06-15T07:35:07.373Z,15.20
2019-06-15T07:37:35.989Z,15.30
2019-06-15T07:40:05.695Z,15.40
2019-06-15T07:42:34.105Z,15.50
2019-06-15T07:45:02.530Z,15.70
2019-06-15T07:47:30.931Z,15.80
2019-06-15T07:49:59.356Z,15.90
2019-06-15T07:52:27.755Z,16.00
2019-06-15T07:55:10.636Z,16.10
2019-06-15T07:57:46.769Z,16.10
2019-06-15T08:00:21.526Z,16.20
2019-06-15T08:02:50.004Z,16.20
2019-06-15T08:05:18.409Z,16.10
2019-06-15T08:07:51.104Z,16.10
2019-06-15T08:10:19.937Z,16.10
2019-06-15T08:12:48.338Z,16.20
2019-06-15T08:15:16.776Z,16.20
2019-06-15T08:17:49.942Z,16.20
2019-06-15T08:20:34.834Z,16.40
2019-06-15T08:23:08.543Z,16.40
2019-06-15T08:25:37.677Z,16.40
2019-06-15T08:28:06.072Z,16.40
2019-06-15T08:30:51.728Z,16.30
2019-06-15T08:33:20.192Z,16.30
2019-06-15T08:35:48.595Z,16.30
2019-06-15T08:38:34.689Z,16.20
2019-06-15T08:41:50.711Z,16.20
2019-06-15T08:44:18.326Z,16.10
2019-06-15T08:47:02.384Z,16.10
2019-06-15T08:49:38.341Z,16.00
2019-06-15T08:52:18.078Z,15.90
2019-06-15T08:54:46.548Z,15.80
2019-06-15T08:57:40.291Z,15.90
2019-06-15T09:00:21.036Z,15.90
2019-06-15T09:02:49.765Z,15.90
2019-06-15T09:05:24.817Z,15.90
2019-06-15T09:08:01.247Z,16.00
2019-06-15T09:10:29.618Z,16.00
2019-06-15T09:12:58.025Z,16.10
2019-06-15T09:15:47.863Z,16.10
2019-06-15T09:18:16.300Z,16.30
2019-06-15T09:20:44.693Z,16.50
2019-06-15T09:23:13.101Z,16.60
2019-06-15T09:25:41.518Z,16.70
2019-06-15T09:28:09.952Z,16.80
2019-06-15T09:30:43.550Z,16.80
2019-06-15T09:33:11.976Z,16.80
2019-06-15T09:35:40.457Z,16.80
2019-06-15T09:38:08.913Z,16.80
2019-06-15T09:40:37.340Z,16.70
2019-06-15T09:43:05.741Z,16.90
2019-06-15T09:45:34.148Z,17.20
2019-06-15T09:48:07.353Z,17.50
2019-06-15T09:50:38.063Z,17.60
2019-06-15T09:53:06.493Z,17.90
2019-06-15T09:55:38.626Z,17.90
2019-06-15T09:58:07.035Z,17.90
2019-06-15T10:00:36.029Z,17.80
2019-06-15T10:03:12.453Z,18.00
2019-06-15T10:05:42.478Z,18.00
2019-06-15T10:08:10.985Z,18.40
2019-06-15T10:10:45.823Z,18.70
2019-06-15T10:13:14.233Z,18.80
2019-06-15T10:15:42.651Z,18.80
2019-06-15T10:18:11.050Z,18.80
2019-06-15T10:20:39.469Z,18.80
2019-06-15T10:23:07.855Z,18.80
2019-06-15T10:25:40.575Z,18.60
2019-06-15T10:28:09.496Z,18.40
2019-06-15T10:30:37.914Z,18.40
2019-06-15T10:33:18.756Z,18.70
2019-06-15T10:35:47.332Z,19.00
2019-06-15T10:38:15.765Z,19.20
2019-06-15T10:40:44.158Z,19.40
2019-06-15T10:43:13.243Z,19.60
2019-06-15T10:45:41.602Z,19.60
2019-06-15T10:48:09.992Z,19.30
2019-06-15T10:50:38.396Z,19.10
2019-06-15T10:53:06.776Z,18.80
2019-06-15T10:55:35.192Z,18.50
2019-06-15T10:58:03.590Z,18.40
2019-06-15T11:00:31.990Z,18.20
2019-06-15T11:03:00.387Z,18.10
2019-06-15T11:05:31.349Z,18.10
2019-06-15T11:07:59.775Z,18.00
2019-06-15T11:10:40.328Z,18.00
2019-06-15T11:13:08.758Z,17.90
2019-06-15T11:15:37.264Z,17.90
2019-06-15T11:18:05.666Z,17.90
2019-06-15T11:20:34.086Z,17.90
2019-06-15T11:23:02.459Z,17.90
2019-06-15T11:25:31.373Z,17.90
2019-06-15T11:27:59.801Z,17.80
2019-06-15T11:30:37.835Z,17.60
2019-06-15T11:33:11.982Z,17.50
2019-06-15T11:35:39.788Z,17.40
2019-06-15T11:38:08.192Z,17.40
2019-06-15T11:40:36.572Z,17.40
2019-06-15T11:43:04.994Z,17.30
2019-06-15T11:45:33.450Z,17.40
2019-06-15T11:50:59.280Z,17.40
2019-06-15T11:53:27.675Z,17.40
2019-06-15T11:55:56.067Z,17.40
2019-06-15T11:58:24.615Z,17.50
2019-06-15T12:00:53.002Z,17.50
2019-06-15T12:03:21.407Z,17.60
2019-06-15T12:05:49.881Z,17.70
2019-06-15T12:08:18.290Z,17.70
2019-06-15T12:10:46.697Z,17.70
2019-06-15T12:13:15.086Z,17.70
2019-06-15T12:15:43.513Z,17.70
2019-06-15T12:18:11.974Z,17.70
2019-06-15T12:20:40.378Z,17.70
2019-06-15T12:23:08.838Z,17.90
2019-06-15T12:25:37.216Z,18.20
2019-06-15T12:28:05.669Z,18.50
2019-06-15T12:30:47.042Z,18.80
2019-06-15T12:33:10.740Z,19.20
2019-06-15T12:35:39.127Z,19.70
2019-06-15T12:38:07.540Z,19.90
2019-06-15T12:40:35.938Z,20.00
2019-06-15T12:43:04.334Z,19.80
2019-06-15T12:45:32.747Z,19.70
2019-06-15T12:48:01.139Z,19.70
2019-06-15T12:50:29.642Z,19.70
2019-06-15T12:52:58.045Z,19.60
2019-06-15T12:55:26.506Z,19.80
2019-06-15T12:57:54.983Z,19.90
2019-06-15T13:00:29.208Z,20.10
2019-06-15T13:02:57.679Z,20.30
2019-06-15T13:05:26.065Z,20.60
2019-06-15T13:07:54.502Z,20.50
2019-06-15T13:10:22.950Z,20.40
2019-06-15T13:12:51.368Z,20.40
2019-06-15T13:15:21.291Z,20.40
2019-06-15T13:17:49.863Z,20.40
2019-06-15T13:20:18.262Z,20.40
2019-06-15T13:22:46.817Z,20.50
2019-06-15T13:25:15.233Z,20.60
2019-06-15T13:27:43.666Z,20.90
2019-06-15T13:30:21.661Z,21.00
2019-06-15T13:32:50.031Z,20.70
2019-06-15T13:35:18.428Z,20.40
2019-06-15T13:37:46.836Z,20.30
2019-06-15T13:40:15.258Z,20.60
2019-06-15T13:42:43.701Z,21.60
2019-06-15T13:45:12.118Z,22.60
2019-06-15T13:47:40.498Z,23.20
2019-06-15T13:50:08.980Z,23.70
2019-06-15T13:52:37.776Z,23.70
2019-06-15T13:55:06.143Z,23.20
2019-06-15T13:57:34.621Z,23.10
2019-06-15T14:00:04.581Z,22.90
2019-06-15T14:02:33.001Z,22.60
2019-06-15T14:05:01.425Z,22.50
2019-06-15T14:07:29.817Z,23.00
2019-06-15T14:09:58.231Z,23.60
2019-06-15T14:12:26.672Z,23.80
2019-06-15T14:14:55.159Z,23.80
2019-06-15T14:17:23.505Z,23.50
2019-06-15T14:19:51.922Z,23.20
2019-06-15T14:22:20.350Z,23.10
2019-06-15T14:24:48.774Z,23.00
2019-06-15T14:27:17.159Z,23.00
2019-06-15T14:29:45.586Z,23.20
2019-06-15T14:32:13.970Z,23.30
2019-06-15T14:34:42.569Z,23.20
2019-06-15T14:37:10.976Z,23.40
2019-06-15T14:39:39.387Z,23.50
2019-06-15T14:42:07.803Z,23.70
2019-06-15T14:44:36.175Z,23.70
2019-06-15T14:47:04.563Z,23.80
2019-06-15T14:49:33.037Z,23.80
2019-06-15T14:52:01.467Z,23.90
2019-06-15T14:54:29.865Z,23.90
2019-06-15T14:56:58.276Z,24.00
2019-06-15T14:59:26.713Z,24.10
2019-06-15T15:02:07.238Z,24.10
2019-06-15T15:04:26.604Z,24.10
2019-06-15T15:06:58.095Z,24.00
2019-06-15T15:09:26.499Z,23.70
2019-06-15T15:11:55.682Z,23.60
2019-06-15T15:14:26.080Z,23.60
2019-06-15T15:16:54.110Z,23.70
2019-06-15T15:19:22.540Z,23.70
2019-06-15T15:21:50.932Z,23.50
2019-06-15T15:24:19.354Z,23.60
2019-06-15T15:26:47.767Z,23.50
2019-06-15T15:29:16.409Z,23.30
2019-06-15T15:31:46.652Z,23.20
2019-06-15T15:34:17.118Z,23.20
2019-06-15T15:36:46.179Z,23.00
2019-06-15T15:39:16.672Z,22.80
2019-06-15T15:41:47.088Z,22.70
2019-06-15T15:44:16.231Z,22.60
2019-06-15T15:46:46.261Z,22.40
2019-06-15T15:49:16.314Z,22.30
2019-06-15T15:51:47.089Z,22.20
2019-06-15T15:54:14.951Z,22.00
2019-06-15T15:56:43.352Z,21.80
2019-06-15T15:59:11.775Z,21.50
2019-06-15T16:01:40.167Z,21.30
2019-06-15T16:04:08.580Z,21.00
2019-06-15T16:06:36.968Z,20.80
2019-06-15T16:09:06.296Z,20.50
2019-06-15T16:11:37.596Z,20.40
2019-06-15T16:14:07.226Z,20.20
2019-06-15T16:16:36.492Z,20.00
2019-06-15T16:19:06.548Z,19.90
2019-06-15T16:21:36.721Z,19.80
2019-06-15T16:24:07.462Z,19.80
2019-06-15T16:26:37.583Z,19.70
2019-06-15T16:29:06.887Z,19.60
2019-06-15T16:31:37.414Z,19.60
2019-06-15T16:34:05.513Z,19.60
2019-06-15T16:36:36.341Z,19.50
2019-06-15T16:39:06.607Z,20.10
2019-06-15T16:41:36.478Z,19.50
2019-06-15T16:44:07.162Z,19.50
2019-06-15T16:46:36.868Z,19.50
2019-06-15T16:49:05.145Z,19.50
2019-06-15T16:51:35.979Z,19.50
2019-06-15T16:54:06.147Z,19.50
2019-06-15T16:56:36.743Z,19.50
2019-06-15T16:59:06.700Z,19.50
2019-06-15T17:01:35.318Z,19.50
2019-06-15T17:04:06.011Z,19.60
2019-06-15T17:06:33.929Z,19.70
2019-06-15T17:09:02.300Z,19.80
2019-06-15T17:11:30.806Z,20.00
2019-06-15T17:13:59.306Z,20.10
2019-06-15T17:16:27.665Z,20.10
2019-06-15T17:18:56.355Z,20.20
2019-06-15T17:21:26.023Z,20.30
2019-06-15T17:23:57.056Z,20.40
2019-06-15T17:26:26.028Z,20.30
2019-06-15T17:28:56.537Z,20.00
2019-06-15T17:31:26.996Z,19.70
2019-06-15T17:33:56.378Z,19.50
2019-06-15T17:36:27.439Z,19.30
2019-06-15T17:38:56.886Z,19.10
2019-06-15T17:41:26.550Z,19.00
2019-06-15T17:43:56.598Z,18.90
2019-06-15T17:46:28.913Z,18.90
2019-06-15T17:48:56.114Z,18.80
2019-06-15T17:51:26.769Z,18.70
2019-06-15T17:53:56.351Z,18.60
2019-06-15T17:56:26.821Z,18.60
2019-06-15T17:58:54.968Z,18.60
2019-06-15T18:01:23.351Z,18.60
2019-06-15T18:03:55.392Z,18.50
2019-06-15T18:06:21.782Z,18.50
2019-06-15T18:08:50.169Z,18.50
2019-06-15T18:11:18.636Z,18.40
2019-06-15T18:13:47.371Z,18.40
2019-06-15T18:16:15.797Z,18.40
2019-06-15T18:18:44.265Z,18.30
2019-06-15T18:21:12.681Z,18.30
2019-06-15T18:23:41.123Z,18.30
2019-06-15T18:26:09.538Z,18.20
2019-06-15T18:28:37.969Z,18.20
2019-06-15T18:31:06.710Z,18.10
2019-06-15T18:33:36.563Z,18.10
2019-06-15T18:36:06.339Z,18.10
2019-06-15T18:38:37.178Z,18.10
2019-06-15T18:41:07.307Z,18.00
2019-06-15T18:43:36.587Z,18.00
2019-06-15T18:46:07.073Z,18.00
2019-06-15T18:48:36.082Z,17.90
2019-06-15T18:51:07.401Z,17.90
2019-06-15T18:53:38.961Z,17.90
2019-06-15T18:56:06.852Z,17.80
2019-06-15T18:58:37.025Z,17.80
2019-06-15T19:01:06.993Z,17.80
2019-06-15T19:03:37.461Z,17.80
2019-06-15T19:06:06.564Z,17.70
2019-06-15T19:08:37.185Z,17.70
2019-06-15T19:11:07.009Z,17.60
2019-06-15T19:13:36.105Z,17.60
2019-06-15T19:16:06.910Z,17.60
2019-06-15T19:18:36.949Z,17.60
2019-06-15T19:21:06.955Z,17.50
2019-06-15T19:23:36.047Z,17.50
2019-06-15T19:26:06.258Z,17.50
2019-06-15T19:28:37.046Z,17.40
2019-06-15T19:31:06.486Z,17.40
2019-06-15T19:33:37.733Z,17.30
2019-06-15T19:36:06.358Z,17.30
2019-06-15T19:38:36.190Z,17.30
2019-06-15T19:41:06.898Z,17.20
2019-06-15T19:43:36.321Z,17.20
2019-06-15T19:46:06.710Z,17.10
2019-06-15T19:48:36.972Z,17.10
2019-06-15T19:51:05.136Z,17.00
2019-06-15T19:53:36.173Z,17.00
2019-06-15T19:56:03.700Z,16.90
2019-06-15T19:58:32.087Z,16.90
2019-06-15T20:01:00.464Z,16.90
2019-06-15T20:03:28.881Z,16.80
2019-06-15T20:05:57.314Z,16.70
2019-06-15T20:08:26.477Z,16.70
2019-06-15T20:10:56.417Z,16.70
2019-06-15T20:13:25.027Z,16.70
2019-06-15T20:15:53.405Z,16.60
2019-06-15T20:18:21.826Z,16.50
2019-06-15T20:20:50.232Z,16.50
2019-06-15T20:23:18.635Z,16.50
2019-06-15T20:25:47.322Z,16.50
2019-06-15T20:28:16.362Z,16.40
2019-06-15T20:30:50.303Z,16.40
2019-06-15T20:33:18.655Z,16.50
2019-06-15T20:35:47.411Z,16.50
2019-06-15T20:38:16.192Z,16.70
2019-06-15T20:40:47.348Z,16.80
2019-06-15T20:43:17.120Z,16.80
2019-06-15T20:45:47.049Z,16.80
2019-06-15T20:48:15.492Z,16.70
2019-06-15T20:50:43.940Z,16.60
2019-06-15T20:53:12.357Z,16.50
2019-06-15T20:55:40.749Z,16.40
2019-06-15T20:58:09.152Z,16.30
2019-06-15T21:00:37.526Z,16.30
2019-06-15T21:03:06.899Z,16.20
2019-06-15T21:05:41.585Z,16.20
2019-06-15T21:08:06.824Z,16.20
2019-06-15T21:10:37.361Z,16.30
2019-06-15T21:13:05.560Z,16.40
2019-06-15T21:15:37.289Z,16.50
2019-06-15T21:18:06.786Z,16.50
2019-06-15T21:20:36.337Z,16.60
2019-06-15T21:23:06.631Z,16.60
2019-06-15T21:25:35.083Z,16.60
2019-06-15T21:28:06.468Z,16.60
2019-06-15T21:30:36.640Z,16.50
2019-06-15T21:33:03.627Z,16.40
2019-06-15T21:35:46.116Z,16.30
2019-06-15T21:38:02.058Z,16.20
2019-06-15T21:40:30.465Z,16.00
2019-06-15T21:42:58.881Z,15.90
2019-06-15T21:45:27.274Z,15.80
2019-06-15T21:47:56.117Z,15.80
2019-06-15T21:50:26.660Z,15.70
2019-06-15T21:52:56.462Z,15.70
2019-06-15T21:55:26.739Z,15.60
2019-06-15T21:57:56.417Z,15.50
2019-06-15T22:00:44.490Z,15.50
2019-06-15T22:03:12.971Z,15.40
2019-06-15T22:05:41.364Z,15.40
2019-06-15T22:08:09.832Z,15.40
2019-06-15T22:10:38.251Z,15.40
2019-06-15T22:13:07.595Z,15.30
2019-06-15T22:15:35.979Z,15.30
2019-06-15T22:18:06.697Z,15.30
2019-06-15T22:20:35.963Z,15.30
2019-06-15T22:23:06.800Z,15.30
2019-06-15T22:25:36.046Z,15.30
2019-06-15T22:28:06.767Z,15.30
2019-06-15T22:30:36.554Z,15.30
2019-06-15T22:33:06.739Z,15.40
2019-06-15T22:35:36.376Z,15.40
2019-06-15T22:38:07.119Z,15.40
2019-06-15T22:40:36.311Z,15.40
2019-06-15T22:43:07.035Z,15.30
2019-06-15T22:45:35.039Z,15.30
2019-06-15T22:48:03.499Z,15.40
2019-06-15T22:50:31.928Z,15.30
2019-06-15T22:53:03.286Z,15.40
2019-06-15T22:55:30.500Z,15.40
2019-06-15T22:57:58.912Z,15.40
2019-06-15T23:00:27.288Z,15.40
2019-06-15T23:02:56.577Z,15.50
2019-06-15T23:05:26.320Z,15.60
2019-06-15T23:07:55.983Z,15.50
2019-06-15T23:10:24.550Z,15.50
2019-06-15T23:12:52.936Z,15.40
2019-06-15T23:15:21.372Z,15.40
2019-06-15T23:17:49.746Z,15.50
2019-06-15T23:20:18.154Z,15.50
2019-06-15T23:22:46.888Z,15.40
2019-06-15T23:25:16.859Z,15.20
2019-06-15T23:27:46.970Z,15.10
2019-06-15T23:30:16.148Z,15.10
2019-06-15T23:32:46.926Z,15.10
2019-06-15T23:35:16.818Z,15.10
2019-06-15T23:37:46.492Z,15.10
2019-06-15T23:40:28.690Z,15.20
2019-06-15T23:42:57.172Z,15.20
2019-06-15T23:45:26.986Z,15.20
2019-06-15T23:47:57.489Z,15.20
2019-06-15T23:50:26.422Z,15.10
2019-06-15T23:52:55.175Z,15.20
2019-06-15T23:55:23.600Z,15.30
2019-06-15T23:57:52.005Z,15.30
